createdAt,value
2023-04-28T00:00:43.862Z,49.47
2023-04-28T00:01:43.864Z,51.72
2023-04-28T00:02:43.937Z,55.27
2023-04-28T00:03:43.952Z,49.47
2023-04-28T00:04:44.067Z,53.01
2023-04-28T00:05:44.006Z,52.37
2023-04-28T00:06:43.835Z,59.78
2023-04-28T00:07:43.944Z,61.87
2023-04-28T00:09:17.140Z,52.21
2023-04-28T00:09:43.831Z,49.95
2023-04-28T00:10:43.713Z,59.14
2023-04-28T00:11:43.783Z,60.42
2023-04-28T00:12:43.784Z,65.58
2023-04-28T00:13:43.768Z,62.84
2023-04-28T00:14:43.688Z,63.00
2023-04-28T00:15:43.718Z,63.81
2023-04-28T00:16:43.798Z,63.81
2023-04-28T00:17:43.746Z,49.15
2023-04-28T00:18:43.700Z,61.07
2023-04-28T00:19:43.686Z,64.29
2023-04-28T00:20:44.766Z,62.04
2023-04-28T00:21:43.642Z,55.75
2023-04-28T00:22:43.734Z,55.75
2023-04-28T00:23:43.732Z,48.66
2023-04-28T00:24:43.716Z,50.60
2023-04-28T00:25:43.744Z,62.52
2023-04-28T00:26:43.756Z,60.26
2023-04-28T00:27:43.698Z,58.65
2023-04-28T00:28:43.778Z,58.81
2023-04-28T00:29:43.631Z,57.52
2023-04-28T00:30:43.834Z,48.82
2023-04-28T00:31:43.699Z,61.23
2023-04-28T00:32:43.636Z,58.65
2023-04-28T00:33:43.615Z,49.95
2023-04-28T00:34:43.605Z,51.40
2023-04-28T00:35:43.626Z,48.98
2023-04-28T00:36:43.628Z,56.07
2023-04-28T00:37:43.639Z,54.46
2023-04-28T00:38:43.593Z,49.15
2023-04-28T00:39:43.562Z,49.31
2023-04-28T00:40:43.585Z,59.30
2023-04-28T00:41:43.594Z,54.30
2023-04-28T00:42:43.557Z,56.07
2023-04-28T00:43:43.538Z,55.43
2023-04-28T00:44:43.554Z,56.72
2023-04-28T00:45:43.582Z,55.75
2023-04-28T00:46:43.659Z,49.63
2023-04-28T00:47:43.668Z,58.65
2023-04-28T00:48:43.490Z,61.07
2023-04-28T00:49:43.628Z,53.17
2023-04-28T00:50:43.504Z,57.69
2023-04-28T00:51:43.594Z,53.66
2023-04-28T00:52:43.924Z,56.07
2023-04-28T00:53:43.386Z,53.82
2023-04-28T00:54:43.439Z,61.87
2023-04-28T00:55:43.886Z,58.65
2023-04-28T00:56:43.420Z,49.79
2023-04-28T00:57:43.435Z,49.15
2023-04-28T00:59:15.424Z,55.27
2023-04-28T00:59:43.389Z,54.79
2023-04-28T01:01:15.488Z,52.53
2023-04-28T01:01:43.425Z,49.15
2023-04-28T01:02:43.512Z,56.72
2023-04-28T01:04:15.958Z,50.60
2023-04-28T01:07:03.043Z,49.47
2023-04-28T01:08:34.994Z,54.62
2023-04-28T01:09:03.017Z,47.70
2023-04-28T01:10:03.108Z,53.01
2023-04-28T01:11:34.946Z,58.65
2023-04-28T01:12:03.115Z,53.50
2023-04-28T01:13:35.031Z,53.82
2023-04-28T01:14:03.025Z,48.50
2023-04-28T01:15:36.551Z,52.21
2023-04-28T01:16:35.080Z,54.95
2023-04-28T01:17:03.051Z,52.05
2023-04-28T01:18:36.307Z,55.27
2023-04-28T01:19:03.137Z,49.15
2023-04-28T01:20:03.160Z,55.27
2023-04-28T01:21:04.123Z,59.46
2023-04-28T01:22:03.110Z,57.04
2023-04-28T01:23:03.117Z,59.46
2023-04-28T01:24:03.240Z,56.24
2023-04-28T01:25:02.992Z,59.46
2023-04-28T01:26:35.004Z,55.91
2023-04-28T01:27:02.936Z,47.53
2023-04-28T01:28:02.915Z,55.75
2023-04-28T01:29:02.882Z,56.40
2023-04-28T01:30:02.940Z,59.30
2023-04-28T01:31:02.917Z,53.33
2023-04-28T01:32:03.050Z,50.76
2023-04-28T01:33:02.926Z,47.53
2023-04-28T01:34:02.919Z,51.24
2023-04-28T01:35:02.888Z,59.30
2023-04-28T01:36:02.953Z,58.49
2023-04-28T01:37:02.988Z,58.33
2023-04-28T01:38:02.926Z,58.17
2023-04-28T01:39:02.877Z,57.85
2023-04-28T01:40:03.922Z,57.04
2023-04-28T01:41:02.915Z,56.88
2023-04-28T01:42:02.890Z,62.84
2023-04-28T01:43:02.973Z,55.43
2023-04-28T01:44:02.885Z,52.85
2023-04-28T01:45:02.938Z,62.84
2023-04-28T01:46:02.855Z,53.66
2023-04-28T01:47:02.730Z,51.24
2023-04-28T01:48:02.839Z,52.53
2023-04-28T01:49:02.732Z,53.98
2023-04-28T01:50:02.730Z,57.69
2023-04-28T01:51:02.920Z,52.21
2023-04-28T01:52:02.787Z,57.36
2023-04-28T01:53:03.325Z,54.30
2023-04-28T01:54:02.815Z,54.95
2023-04-28T01:55:02.808Z,55.59
2023-04-28T01:56:02.775Z,57.04
2023-04-28T01:57:02.781Z,55.59
2023-04-28T01:58:02.719Z,58.49
2023-04-28T01:59:02.796Z,57.85
2023-04-28T02:00:02.765Z,56.40
2023-04-28T02:01:02.728Z,57.20
2023-04-28T02:02:02.826Z,56.24
2023-04-28T02:03:02.830Z,48.50
2023-04-28T02:04:02.936Z,47.70
2023-04-28T02:05:02.735Z,58.01
2023-04-28T02:06:02.724Z,59.94
2023-04-28T02:07:02.614Z,52.53
2023-04-28T02:08:02.599Z,57.20
2023-04-28T02:09:02.587Z,49.79
2023-04-28T02:10:02.624Z,59.78
2023-04-28T02:11:02.562Z,59.46
2023-04-28T02:12:02.607Z,56.72
2023-04-28T02:13:02.544Z,55.91
2023-04-28T02:14:02.569Z,57.20
2023-04-28T02:15:02.621Z,55.27
2023-04-28T02:16:02.646Z,55.59
2023-04-28T02:17:02.575Z,53.82
2023-04-28T02:18:02.591Z,56.72
2023-04-28T02:19:02.617Z,51.08
2023-04-28T02:20:02.646Z,56.24
2023-04-28T02:21:02.706Z,56.24
2023-04-28T02:22:02.611Z,55.43
2023-04-28T02:23:02.560Z,59.46
2023-04-28T02:24:02.554Z,53.66
2023-04-28T02:25:03.643Z,53.01
2023-04-28T02:26:02.568Z,59.30
2023-04-28T02:27:02.567Z,54.79
2023-04-28T02:28:02.581Z,56.56
2023-04-28T02:29:02.497Z,50.76
2023-04-28T02:30:02.466Z,50.92
2023-04-28T02:31:02.489Z,56.24
2023-04-28T02:32:02.450Z,53.50
2023-04-28T02:33:02.489Z,58.49
2023-04-28T02:34:02.439Z,57.69
2023-04-28T02:35:02.420Z,54.95
2023-04-28T02:36:02.535Z,54.46
2023-04-28T02:37:02.502Z,55.27
2023-04-28T02:38:02.482Z,54.46
2023-04-28T02:39:02.502Z,54.62
2023-04-28T02:40:02.472Z,53.01
2023-04-28T02:41:02.524Z,56.07
2023-04-28T02:42:02.527Z,56.07
2023-04-28T02:43:02.431Z,56.24
2023-04-28T02:44:02.480Z,53.98
2023-04-28T02:45:02.465Z,56.72
2023-04-28T02:46:02.464Z,56.56
2023-04-28T02:47:02.520Z,54.62
2023-04-28T02:48:02.425Z,56.24
2023-04-28T02:49:02.348Z,60.26
2023-04-28T02:50:02.398Z,58.97
2023-04-28T02:51:02.313Z,59.30
2023-04-28T02:52:02.321Z,54.62
2023-04-28T02:53:02.362Z,56.56
2023-04-28T02:54:02.298Z,58.01
2023-04-28T02:55:02.286Z,56.72
2023-04-28T02:56:02.356Z,58.33
2023-04-28T02:57:02.369Z,58.01
2023-04-28T02:58:02.682Z,58.17
2023-04-28T02:59:02.350Z,59.62
2023-04-28T03:00:02.421Z,62.36
2023-04-28T03:01:02.368Z,58.49
2023-04-28T03:02:02.355Z,59.46
2023-04-28T03:03:02.473Z,62.36
2023-04-28T03:04:02.621Z,62.52
2023-04-28T03:05:02.434Z,58.33
2023-04-28T03:06:02.335Z,59.46
2023-04-28T03:07:02.316Z,57.69
2023-04-28T03:08:02.275Z,55.27
2023-04-28T03:09:02.344Z,55.75
2023-04-28T03:10:02.305Z,56.07
2023-04-28T03:11:02.257Z,62.52
2023-04-28T03:12:02.252Z,61.55
2023-04-28T03:13:02.281Z,61.71
2023-04-28T03:14:02.233Z,64.94
2023-04-28T03:15:02.295Z,62.52
2023-04-28T03:16:02.238Z,60.26
2023-04-28T03:17:02.164Z,62.04
2023-04-28T03:18:02.212Z,62.04
2023-04-28T03:19:02.230Z,62.04
2023-04-28T03:20:02.268Z,63.33
2023-04-28T03:21:02.248Z,61.23
2023-04-28T03:22:02.188Z,61.71
2023-04-28T03:23:02.204Z,60.59
2023-04-28T03:24:04.786Z,58.01
2023-04-28T03:25:02.197Z,60.26
2023-04-28T03:26:02.295Z,61.39
2023-04-28T03:27:02.232Z,63.81
2023-04-28T03:28:02.197Z,64.13
2023-04-28T03:29:02.213Z,62.68
2023-04-28T03:30:02.143Z,58.97
2023-04-28T03:31:02.200Z,59.14
2023-04-28T03:32:02.075Z,61.87
2023-04-28T03:33:02.074Z,61.71
2023-04-28T03:34:02.143Z,64.29
2023-04-28T03:35:02.086Z,63.81
2023-04-28T03:36:02.165Z,61.87
2023-04-28T03:37:02.153Z,63.81
2023-04-28T03:38:02.109Z,59.30
2023-04-28T03:39:02.113Z,61.39
2023-04-28T03:40:02.129Z,69.77
2023-04-28T03:41:02.099Z,71.06
2023-04-28T03:42:02.142Z,73.64
2023-04-28T03:43:04.487Z,75.09
2023-04-28T03:44:02.037Z,72.51
2023-04-28T03:45:02.063Z,70.58
2023-04-28T03:46:02.116Z,71.22
2023-04-28T03:47:02.057Z,70.90
2023-04-28T03:48:02.145Z,72.99
2023-04-28T03:49:02.027Z,71.06
2023-04-28T03:50:02.030Z,72.19
2023-04-28T03:51:01.929Z,73.15
2023-04-28T03:52:01.903Z,71.38
2023-04-28T03:53:01.957Z,71.87
2023-04-28T03:54:01.907Z,71.87
2023-04-28T03:55:01.948Z,73.48
2023-04-28T03:56:01.916Z,71.54
2023-04-28T03:57:01.897Z,69.61
2023-04-28T03:58:01.882Z,69.45
2023-04-28T03:59:02.221Z,69.45
2023-04-28T04:00:01.893Z,69.93
2023-04-28T04:01:02.013Z,67.84
2023-04-28T04:02:01.946Z,68.32
2023-04-28T04:03:02.129Z,67.68
2023-04-28T04:04:02.106Z,67.51
2023-04-28T04:05:02.345Z,67.35
2023-04-28T04:06:01.887Z,67.03
2023-04-28T04:07:02.010Z,70.42
2023-04-28T04:08:01.873Z,67.51
2023-04-28T04:09:02.017Z,68.32
2023-04-28T04:10:04.105Z,68.32
2023-04-28T04:11:03.022Z,68.64
2023-04-28T04:12:01.897Z,70.09
2023-04-28T04:13:01.929Z,68.64
2023-04-28T04:14:01.866Z,69.61
2023-04-28T04:15:01.852Z,68.80
2023-04-28T04:16:01.742Z,67.51
2023-04-28T04:17:01.726Z,68.64
2023-04-28T04:18:01.887Z,68.00
2023-04-28T04:19:01.770Z,67.03
2023-04-28T04:20:01.769Z,68.00
2023-04-28T04:21:01.821Z,66.39
2023-04-28T04:22:01.771Z,66.39
2023-04-28T04:23:01.702Z,67.35
2023-04-28T04:24:05.801Z,67.03
2023-04-28T04:25:02.762Z,67.03
2023-04-28T04:26:01.687Z,65.58
2023-04-28T04:27:01.744Z,66.06
2023-04-28T04:28:01.829Z,64.78
2023-04-28T04:29:09.168Z,66.55
2023-04-28T04:30:02.694Z,65.74
2023-04-28T04:31:01.788Z,65.74
2023-04-28T04:32:01.877Z,66.87
2023-04-28T04:33:01.802Z,70.58
2023-04-28T04:34:01.954Z,68.96
2023-04-28T04:35:01.669Z,78.47
2023-04-28T04:36:01.742Z,65.10
2023-04-28T04:37:01.700Z,65.26
2023-04-28T04:38:01.668Z,67.51
2023-04-28T04:39:01.687Z,66.39
2023-04-28T04:40:01.687Z,63.49
2023-04-28T04:41:01.740Z,64.13
2023-04-28T04:42:07.458Z,65.42
2023-04-28T04:45:55.986Z,66.71
2023-04-28T04:46:56.091Z,68.16
2023-04-28T04:47:56.101Z,68.64
2023-04-28T04:48:56.010Z,68.32
2023-04-28T04:49:55.970Z,68.16
2023-04-28T04:51:27.894Z,67.03
2023-04-28T04:51:56.060Z,65.10
2023-04-28T04:52:56.058Z,66.55
2023-04-28T04:53:56.080Z,68.00
2023-04-28T04:54:56.164Z,66.87
2023-04-28T04:55:56.085Z,66.71
2023-04-28T04:56:56.002Z,67.03
2023-04-28T04:57:56.032Z,68.64
2023-04-28T04:58:56.031Z,66.71
2023-04-28T05:00:15.934Z,67.03
2023-04-28T05:00:56.921Z,67.68
2023-04-28T05:01:56.127Z,67.35
2023-04-28T05:02:56.113Z,65.58
2023-04-28T05:03:56.382Z,66.39
2023-04-28T05:05:04.687Z,65.58
2023-04-28T05:05:58.031Z,63.97
2023-04-28T05:06:55.980Z,62.68
2023-04-28T05:07:55.944Z,63.81
2023-04-28T05:08:55.927Z,66.55
2023-04-28T05:09:55.969Z,64.29
2023-04-28T05:10:55.813Z,68.00
2023-04-28T05:11:55.902Z,64.78
2023-04-28T05:12:55.928Z,67.03
2023-04-28T05:13:55.937Z,66.55
2023-04-28T05:14:56.045Z,68.48
2023-04-28T05:15:55.805Z,68.96
2023-04-28T05:16:55.792Z,67.35
2023-04-28T05:17:55.873Z,67.03
2023-04-28T05:18:55.800Z,67.19
2023-04-28T05:19:55.830Z,67.68
2023-04-28T05:20:55.872Z,64.13
2023-04-28T05:21:55.883Z,64.29
2023-04-28T05:22:55.910Z,64.29
2023-04-28T05:23:55.855Z,65.26
2023-04-28T05:24:55.937Z,68.00
2023-04-28T05:25:55.856Z,65.90
2023-04-28T05:26:56.013Z,65.90
2023-04-28T05:27:55.820Z,67.03
2023-04-28T05:28:55.843Z,67.35
2023-04-28T05:29:55.809Z,67.35
2023-04-28T05:30:55.842Z,68.64
2023-04-28T05:31:55.912Z,67.68
2023-04-28T05:33:02.547Z,63.00
2023-04-28T05:33:55.799Z,65.58
2023-04-28T05:34:55.691Z,64.61
2023-04-28T05:35:55.836Z,67.51
2023-04-28T05:36:55.701Z,69.29
2023-04-28T05:38:29.011Z,65.90
2023-04-28T05:38:55.724Z,65.58
2023-04-28T05:39:55.643Z,64.94
2023-04-28T05:41:30.654Z,65.10
2023-04-28T05:41:55.638Z,65.10
2023-04-28T05:47:27.641Z,67.84
2023-04-28T05:48:27.648Z,66.71
2023-04-28T05:49:27.657Z,65.74
2023-04-28T05:50:27.607Z,68.80
2023-04-28T05:51:35.292Z,68.16
2023-04-28T05:52:28.507Z,68.80
2023-04-28T05:53:27.597Z,69.61
2023-04-28T05:54:27.577Z,69.45
2023-04-28T05:55:27.605Z,69.61
2023-04-28T05:56:27.621Z,69.29
2023-04-28T05:57:27.686Z,69.29
2023-04-28T05:58:27.546Z,66.71
2023-04-28T05:59:27.568Z,67.03
2023-04-28T06:00:27.525Z,67.84
2023-04-28T06:01:27.617Z,66.39
2023-04-28T06:02:28.173Z,68.96
2023-04-28T06:03:28.700Z,62.20
2023-04-28T06:04:27.772Z,63.65
2023-04-28T06:05:27.689Z,65.90
2023-04-28T06:06:27.503Z,67.03
2023-04-28T06:07:27.456Z,64.13
2023-04-28T06:08:27.711Z,69.77
2023-04-28T06:09:27.486Z,69.61
2023-04-28T06:10:27.405Z,71.22
2023-04-28T06:11:27.366Z,62.68
2023-04-28T06:12:27.347Z,65.42
2023-04-28T06:13:27.398Z,63.00
2023-04-28T06:14:27.356Z,65.42
2023-04-28T06:15:27.329Z,61.71
2023-04-28T06:16:27.531Z,65.42
2023-04-28T06:17:27.339Z,65.42
2023-04-28T06:18:27.529Z,63.81
2023-04-28T06:19:27.386Z,64.45
2023-04-28T06:20:27.524Z,63.16
2023-04-28T06:21:27.429Z,69.77
2023-04-28T06:22:27.490Z,69.61
2023-04-28T06:23:27.392Z,68.16
2023-04-28T06:24:28.465Z,66.55
2023-04-28T06:25:27.304Z,71.38
2023-04-28T06:26:27.376Z,68.96
2023-04-28T06:27:27.332Z,70.09
2023-04-28T06:28:27.317Z,70.25
2023-04-28T06:29:27.403Z,69.77
2023-04-28T06:30:27.369Z,68.96
2023-04-28T06:31:27.394Z,62.68
2023-04-28T06:32:27.287Z,67.19
2023-04-28T06:33:27.284Z,69.13
2023-04-28T06:34:59.336Z,62.36
2023-04-28T06:35:27.191Z,63.81
2023-04-28T06:36:27.346Z,63.97
2023-04-28T06:37:27.384Z,65.74
2023-04-28T06:38:27.199Z,67.68
2023-04-28T06:39:27.164Z,68.32
2023-04-28T06:40:27.217Z,65.26
2023-04-28T06:41:27.182Z,64.13
2023-04-28T06:42:27.231Z,64.78
2023-04-28T06:43:27.133Z,64.13
2023-04-28T06:44:27.117Z,63.00
2023-04-28T06:45:27.152Z,63.65
2023-04-28T06:46:27.214Z,63.33
2023-04-28T06:47:59.343Z,64.13
2023-04-28T06:48:27.201Z,61.87
2023-04-28T06:49:27.177Z,61.71
2023-04-28T06:50:27.177Z,63.49
2023-04-28T06:51:27.196Z,65.74
2023-04-28T06:52:33.094Z,63.97
2023-04-28T06:53:29.073Z,62.04
2023-04-28T06:54:27.105Z,63.65
2023-04-28T06:55:27.118Z,65.74
2023-04-28T06:56:27.158Z,68.64
2023-04-28T06:57:27.132Z,66.71
2023-04-28T06:58:27.085Z,62.20
2023-04-28T06:59:27.070Z,64.78
2023-04-28T07:00:27.192Z,65.58
2023-04-28T07:01:27.184Z,64.13
2023-04-28T07:02:27.361Z,62.20
2023-04-28T07:03:27.192Z,62.04
2023-04-28T07:04:58.983Z,73.96
2023-04-28T07:05:26.963Z,61.71
2023-04-28T07:06:31.460Z,64.29
2023-04-28T07:07:26.966Z,65.10
2023-04-28T07:08:26.962Z,63.33
2023-04-28T07:09:26.936Z,63.81
2023-04-28T07:10:26.944Z,65.42
2023-04-28T07:11:26.929Z,64.13
2023-04-28T07:12:27.621Z,66.87
2023-04-28T07:13:26.927Z,67.68
2023-04-28T07:14:26.977Z,65.10
2023-04-28T07:15:26.930Z,67.35
2023-04-28T07:16:26.977Z,68.16
2023-04-28T07:17:27.017Z,64.94
2023-04-28T07:18:26.912Z,64.45
2023-04-28T07:19:26.971Z,63.33
2023-04-28T07:20:26.955Z,64.29
2023-04-28T07:21:27.022Z,64.94
2023-04-28T07:22:26.900Z,63.81
2023-04-28T07:23:27.097Z,64.45
2023-04-28T07:24:59.264Z,63.00
2023-04-28T07:25:26.834Z,72.19
2023-04-28T07:26:26.942Z,65.10
2023-04-28T07:27:26.958Z,61.39
2023-04-28T07:28:27.125Z,64.29
2023-04-28T07:29:27.030Z,65.26
2023-04-28T07:30:28.269Z,62.20
2023-04-28T07:31:27.932Z,61.71
2023-04-28T07:32:26.863Z,63.33
2023-04-28T07:33:26.821Z,63.81
2023-04-28T07:34:26.857Z,60.59
2023-04-28T07:35:26.825Z,61.55
2023-04-28T07:36:26.820Z,62.84
2023-04-28T07:37:26.832Z,66.87
2023-04-28T07:38:26.934Z,65.42
2023-04-28T07:39:26.928Z,62.20
2023-04-28T07:40:26.745Z,66.06
2023-04-28T07:41:26.679Z,67.68
2023-04-28T07:42:26.913Z,68.96
2023-04-28T07:43:26.786Z,68.32
2023-04-28T07:44:26.795Z,65.26
2023-04-28T07:45:26.834Z,66.39
2023-04-28T07:46:26.838Z,68.00
2023-04-28T07:47:26.740Z,66.06
2023-04-28T07:48:26.834Z,67.19
2023-04-28T07:49:26.737Z,63.49
2023-04-28T07:50:26.948Z,70.09
2023-04-28T07:51:26.707Z,67.03
2023-04-28T07:52:26.857Z,63.00
2023-04-28T07:53:36.217Z,64.94
2023-04-28T07:54:27.647Z,68.16
2023-04-28T07:55:26.703Z,64.29
2023-04-28T07:56:26.781Z,67.68
2023-04-28T07:57:26.671Z,66.39
2023-04-28T07:58:26.680Z,65.74
2023-04-28T07:59:26.691Z,69.13
2023-04-28T08:00:26.550Z,70.42
2023-04-28T08:01:26.659Z,68.80
2023-04-28T08:02:26.695Z,68.48
2023-04-28T08:03:26.897Z,69.29
2023-04-28T08:04:28.041Z,69.45
2023-04-28T08:05:26.633Z,68.64
2023-04-28T08:06:26.506Z,64.94
2023-04-28T08:07:26.528Z,66.06
2023-04-28T08:08:26.772Z,67.51
2023-04-28T08:09:26.543Z,68.96
2023-04-28T08:10:26.545Z,68.48
2023-04-28T08:11:26.443Z,65.26
2023-04-28T08:12:29.547Z,65.90
2023-04-28T08:13:26.541Z,62.68
2023-04-28T08:14:26.562Z,68.64
2023-04-28T08:15:26.539Z,63.81
2023-04-28T08:16:26.553Z,59.62
2023-04-28T08:17:26.534Z,61.23
2023-04-28T08:18:26.904Z,61.07
2023-04-28T08:19:26.519Z,63.33
2023-04-28T08:20:26.596Z,64.29
2023-04-28T08:21:26.510Z,64.78
2023-04-28T08:22:26.537Z,65.42
2023-04-28T08:23:26.599Z,66.23
2023-04-28T08:24:26.454Z,61.87
2023-04-28T08:25:26.433Z,61.87
2023-04-28T08:26:26.462Z,64.94
2023-04-28T08:27:26.471Z,63.33
2023-04-28T08:28:26.480Z,65.42
2023-04-28T08:29:26.500Z,63.81
2023-04-28T08:30:26.447Z,62.52
2023-04-28T08:31:26.427Z,62.36
2023-04-28T08:32:26.398Z,62.04
2023-04-28T08:33:26.339Z,65.26
2023-04-28T08:34:26.439Z,70.42
2023-04-28T08:35:26.408Z,64.78
2023-04-28T08:36:26.282Z,69.45
2023-04-28T08:37:26.427Z,63.16
2023-04-28T08:38:26.339Z,65.26
2023-04-28T08:39:26.373Z,62.52
2023-04-28T08:40:26.422Z,63.16
2023-04-28T08:41:26.387Z,64.13
2023-04-28T08:42:26.382Z,69.45
2023-04-28T08:43:28.537Z,69.13
2023-04-28T08:44:27.387Z,67.19
2023-04-28T08:45:28.291Z,65.42
2023-04-28T08:46:26.331Z,68.32
2023-04-28T08:47:26.298Z,67.51
2023-04-28T08:48:26.386Z,69.77
2023-04-28T08:49:26.339Z,65.58
2023-04-28T08:50:26.280Z,65.74
2023-04-28T08:51:26.396Z,65.74
2023-04-28T08:52:26.269Z,68.32
2023-04-28T08:53:26.387Z,68.16
2023-04-28T08:54:27.060Z,68.80
2023-04-28T08:55:27.216Z,68.80
2023-04-28T08:56:26.184Z,74.44
2023-04-28T08:57:26.157Z,68.48
2023-04-28T08:58:26.154Z,65.10
2023-04-28T08:59:26.214Z,65.74
2023-04-28T09:00:26.232Z,64.61
2023-04-28T09:01:26.272Z,64.29
2023-04-28T09:02:26.406Z,64.29
2023-04-28T09:03:26.274Z,66.06
2023-04-28T09:04:26.892Z,66.87
2023-04-28T09:05:26.272Z,61.87
2023-04-28T09:06:26.167Z,61.87
2023-04-28T09:07:26.209Z,67.35
2023-04-28T09:08:26.139Z,68.64
2023-04-28T09:09:26.239Z,66.23
2023-04-28T09:10:26.066Z,65.26
2023-04-28T09:11:26.123Z,68.00
2023-04-28T09:12:26.266Z,63.00
2023-04-28T09:13:26.168Z,62.20
2023-04-28T09:14:26.189Z,64.94
2023-04-28T09:15:26.142Z,66.23
2023-04-28T09:16:26.252Z,67.68
2023-04-28T09:17:26.066Z,62.20
2023-04-28T09:18:26.057Z,64.29
2023-04-28T09:19:26.041Z,63.65
2023-04-28T09:20:26.002Z,62.36
2023-04-28T09:21:26.075Z,66.71
2023-04-28T09:22:27.140Z,63.33
2023-04-28T09:23:27.260Z,63.33
2023-04-28T09:24:26.007Z,66.23
2023-04-28T09:25:26.168Z,65.74
2023-04-28T09:26:26.032Z,66.87
2023-04-28T09:27:26.124Z,69.45
2023-04-28T09:28:26.083Z,69.93
2023-04-28T09:29:26.061Z,67.35
2023-04-28T09:30:26.037Z,67.51
2023-04-28T09:31:26.123Z,64.78
2023-04-28T09:32:26.098Z,64.29
2023-04-28T09:33:26.191Z,66.71
2023-04-28T09:34:26.074Z,66.23
2023-04-28T09:35:26.036Z,68.16
2023-04-28T09:36:25.991Z,68.80
2023-04-28T09:37:26.068Z,64.29
2023-04-28T09:38:25.991Z,66.39
2023-04-28T09:39:26.067Z,69.13
2023-04-28T09:40:26.158Z,68.32
2023-04-28T09:41:25.865Z,65.74
2023-04-28T09:42:25.878Z,66.39
2023-04-28T09:46:46.270Z,72.19
2023-04-28T09:47:46.309Z,68.32
2023-04-28T09:48:46.223Z,65.58
2023-04-28T09:49:47.239Z,64.45
2023-04-28T09:50:46.249Z,64.94
2023-04-28T09:51:46.210Z,62.68
2023-04-28T09:52:46.220Z,63.49
2023-04-28T09:53:46.170Z,61.23
2023-04-28T09:54:46.188Z,66.06
2023-04-28T09:55:47.001Z,63.16
2023-04-28T09:56:46.076Z,64.13
2023-04-28T09:57:47.825Z,62.84
2023-04-28T09:58:46.039Z,61.71
2023-04-28T09:59:46.052Z,62.04
2023-04-28T10:00:46.055Z,63.16
2023-04-28T10:01:46.357Z,62.84
2023-04-28T10:02:46.182Z,65.58
2023-04-28T10:03:46.268Z,63.00
2023-04-28T10:04:46.234Z,62.20
2023-04-28T10:05:46.063Z,62.84
2023-04-28T10:06:46.055Z,64.13
2023-04-28T10:07:46.159Z,64.29
2023-04-28T10:08:46.056Z,65.74
2023-04-28T10:09:46.071Z,63.81
2023-04-28T10:10:45.973Z,63.81
2023-04-28T10:11:46.126Z,64.61
2023-04-28T10:12:46.055Z,65.58
2023-04-28T10:13:46.059Z,66.06
2023-04-28T10:14:46.076Z,64.45
2023-04-28T10:15:47.564Z,67.35
2023-04-28T10:16:46.008Z,62.84
2023-04-28T10:17:48.750Z,64.29
2023-04-28T10:18:46.974Z,66.87
2023-04-28T10:19:46.070Z,68.16
2023-04-28T10:20:45.989Z,65.26
2023-04-28T10:21:48.057Z,62.68
2023-04-28T10:22:46.087Z,64.45
2023-04-28T10:23:45.953Z,63.81
2023-04-28T10:24:46.077Z,75.89
2023-04-28T10:25:45.941Z,67.84
2023-04-28T10:26:46.082Z,67.19
2023-04-28T10:27:45.958Z,62.84
2023-04-28T10:28:46.784Z,62.84
2023-04-28T10:29:45.978Z,61.39
2023-04-28T10:30:45.940Z,66.71
2023-04-28T10:31:45.999Z,66.71
2023-04-28T10:32:45.935Z,63.49
2023-04-28T10:33:45.882Z,64.94
2023-04-28T10:34:45.850Z,65.10
2023-04-28T10:35:45.814Z,65.74
2023-04-28T10:36:45.867Z,62.52
2023-04-28T10:37:45.744Z,66.87
2023-04-28T10:38:45.833Z,66.23
2023-04-28T10:39:45.922Z,65.90
2023-04-28T10:40:46.020Z,66.55
2023-04-28T10:41:45.874Z,66.06
2023-04-28T10:42:45.848Z,67.84
2023-04-28T10:43:45.946Z,67.51
2023-04-28T10:44:45.903Z,68.48
2023-04-28T10:45:46.236Z,69.45
2023-04-28T10:46:46.201Z,68.64
2023-04-28T10:47:46.010Z,64.61
2023-04-28T10:48:46.107Z,65.74
2023-04-28T10:49:47.073Z,65.10
2023-04-28T10:50:45.953Z,66.55
2023-04-28T10:51:46.358Z,68.16
2023-04-28T10:52:46.281Z,68.16
2023-04-28T10:53:46.459Z,66.55
2023-04-28T10:54:46.028Z,66.55
2023-04-28T10:55:46.234Z,68.00
2023-04-28T10:57:18.148Z,69.29
2023-04-28T10:57:46.102Z,64.45
2023-04-28T10:58:46.103Z,65.58
2023-04-28T10:59:45.826Z,66.71
2023-04-28T11:00:45.761Z,66.06
2023-04-28T11:01:45.912Z,67.03
2023-04-28T11:02:45.876Z,62.84
2023-04-28T11:03:46.112Z,62.20
2023-04-28T11:04:46.141Z,62.04
2023-04-28T11:05:46.065Z,63.49
2023-04-28T11:06:46.042Z,66.23
2023-04-28T11:07:46.641Z,63.49
2023-04-28T11:08:45.904Z,63.49
2023-04-28T11:09:46.347Z,62.36
2023-04-28T11:10:46.186Z,67.03
2023-04-28T11:11:46.356Z,66.23
2023-04-28T11:12:46.153Z,62.20
2023-04-28T11:13:46.182Z,65.10
2023-04-28T11:14:46.247Z,61.87
2023-04-28T11:15:46.275Z,62.20
2023-04-28T11:16:46.352Z,61.07
2023-04-28T11:17:46.114Z,61.71
2023-04-28T11:18:45.645Z,61.55
2023-04-28T11:19:45.882Z,58.81
2023-04-28T11:20:45.632Z,61.39
2023-04-28T11:21:46.014Z,60.75
2023-04-28T11:22:45.731Z,61.55
2023-04-28T11:23:45.900Z,62.04
2023-04-28T11:24:46.059Z,61.55
2023-04-28T11:25:45.907Z,62.52
2023-04-28T11:26:46.115Z,65.42
2023-04-28T11:27:45.692Z,64.29
2023-04-28T11:28:45.570Z,64.29
2023-04-28T11:29:45.745Z,67.03
2023-04-28T11:30:45.528Z,68.16
2023-04-28T11:31:45.575Z,67.84
2023-04-28T11:32:46.745Z,73.32
2023-04-28T11:33:45.639Z,61.07
2023-04-28T11:34:45.713Z,59.62
2023-04-28T11:35:45.404Z,60.59
2023-04-28T11:36:45.572Z,63.33
2023-04-28T11:37:45.643Z,66.39
2023-04-28T11:38:45.654Z,71.38
2023-04-28T11:39:45.533Z,66.23
2023-04-28T11:40:45.625Z,64.13
2023-04-28T11:41:45.641Z,64.78
2023-04-28T11:42:45.409Z,63.65
2023-04-28T11:43:47.676Z,63.81
2023-04-28T11:44:46.397Z,70.90
2023-04-28T11:45:45.377Z,65.42
2023-04-28T11:46:45.368Z,61.23
2023-04-28T11:47:45.456Z,60.75
2023-04-28T11:48:45.376Z,61.71
2023-04-28T11:49:45.532Z,64.29
2023-04-28T11:50:45.450Z,63.81
2023-04-28T11:51:45.528Z,61.07
2023-04-28T11:52:45.380Z,64.13
2023-04-28T11:53:45.378Z,63.65
2023-04-28T11:54:45.425Z,69.45
2023-04-28T11:55:45.373Z,62.36
2023-04-28T11:56:45.388Z,68.64
2023-04-28T11:57:45.388Z,64.61
2023-04-28T11:58:45.409Z,62.20
2023-04-28T11:59:45.566Z,62.68
2023-04-28T12:00:45.461Z,62.36
2023-04-28T12:01:45.361Z,65.42
2023-04-28T12:02:45.373Z,66.23
2023-04-28T12:03:45.335Z,64.13
2023-04-28T12:04:45.192Z,60.75
2023-04-28T12:05:45.336Z,62.36
2023-04-28T12:06:45.165Z,68.00
2023-04-28T12:07:49.617Z,63.16
2023-04-28T12:08:46.177Z,58.81
2023-04-28T12:09:45.256Z,62.68
2023-04-28T12:10:45.126Z,63.49
2023-04-28T12:11:45.130Z,61.39
2023-04-28T12:12:50.722Z,66.39
2023-04-28T12:13:47.385Z,65.42
2023-04-28T12:14:45.209Z,64.78
2023-04-28T12:15:45.324Z,61.39
2023-04-28T12:16:45.197Z,66.23
2023-04-28T12:17:45.300Z,63.81
2023-04-28T12:18:45.281Z,67.19
2023-04-28T12:19:45.201Z,66.39
2023-04-28T12:20:45.107Z,65.90
2023-04-28T12:21:45.273Z,61.23
2023-04-28T12:22:45.124Z,60.75
2023-04-28T12:23:45.177Z,70.42
2023-04-28T12:24:45.090Z,62.52
2023-04-28T12:25:45.101Z,60.75
2023-04-28T12:26:45.115Z,62.36
2023-04-28T12:27:45.133Z,62.68
2023-04-28T12:28:45.080Z,64.61
2023-04-28T12:29:45.563Z,67.03
2023-04-28T12:30:45.172Z,72.51
2023-04-28T12:31:45.103Z,70.90
2023-04-28T12:32:45.297Z,64.94
2023-04-28T12:33:45.119Z,65.90
2023-04-28T12:34:45.112Z,64.29
2023-04-28T12:35:45.342Z,65.42
2023-04-28T12:36:45.133Z,64.45
2023-04-28T12:37:45.048Z,63.00
2023-04-28T12:38:45.518Z,62.04
2023-04-28T12:39:45.739Z,61.55
2023-04-28T12:40:45.106Z,65.90
2023-04-28T12:41:45.062Z,68.16
2023-04-28T12:42:45.439Z,68.16
2023-04-28T12:43:44.930Z,66.87
2023-04-28T12:44:44.925Z,64.78
2023-04-28T12:45:44.922Z,68.80
2023-04-28T12:46:45.020Z,66.71
2023-04-28T12:47:45.076Z,63.33
2023-04-28T12:48:44.880Z,62.36
2023-04-28T12:49:45.393Z,67.51
2023-04-28T12:50:44.897Z,67.19
2023-04-28T12:51:44.929Z,66.71
2023-04-28T12:52:44.943Z,65.42
2023-04-28T12:53:45.090Z,64.13
2023-04-28T12:54:45.150Z,62.36
2023-04-28T12:55:44.910Z,67.03
2023-04-28T12:56:45.132Z,65.58
2023-04-28T12:57:45.254Z,65.74
2023-04-28T12:58:45.145Z,63.49
2023-04-28T12:59:45.204Z,64.61
2023-04-28T13:00:45.604Z,64.78
2023-04-28T13:01:45.611Z,67.03
2023-04-28T13:02:45.605Z,66.71
2023-04-28T13:03:45.575Z,66.55
2023-04-28T13:04:45.446Z,62.36
2023-04-28T13:05:45.315Z,64.13